Herculandia, Brazil
Current Conditions -  °F | °C
As of 9:00 AM on Friday 24 Oct 2014 (Local Time) from SBAU Reporting Station
Thunderstorm Thunderstorm  
Wind Chill: 75°   Ceiling: Unl
Heat Index: 75°   Visibility: 5mi
Dew Point: 64°   Wind: 9mph
Humidity: 69%   Direction: 50°NE
Pressure: 30"   Gusts: NA
Location:  22.01°S, 50.39°W
Report Text: SBAU 241100Z 05008KT 8000 -TSRA FEW040CB SCT080 24/18 Q1016
Loading
Personal Weather Stations






























Interactive Weather Map
Tropical Storm Tracking
New forecast layout! Learn more

10-Day Weather Forecast

Advertisements
Track Severe Weather on mobile